Pocatello, ID

8:25 PM MDT on May 05, 2015 (GMT -0600)
Fanning | | Change Station
CLOSE
Current Station
Airport
Location: Idaho Falls,
Elevation: 4741 ft
Nearby Weather Stations

Elev 4741 ft 43.51 °N, 112.07 °W | Updated 32 minutes ago

Mostly Cloudy
Mostly Cloudy
54 °F
Feels Like 54 °F
N
14
Wind Variable Wind from East

Today
High -- | Low -- °F
--% Chance of Precip.
Yesterday
High -- | Low -- °F
Precip. -- in
6:18 AM 8:34 PM
Waning Gibbous, 96% visible
Pressure 29.73 in
Visibility 10.0 miles
Clouds Few 10000 ft
Few 12000 ft
Dew Point 47 °F
Humidity 77%
Rainfall 0.10 in
Snow Depth Not available.
UV 0 out of 12
Pollen 9.60 out of 12
Air Quality Not available.
Flu Activity Sporadic
METAR KIDA 060153Z AUTO 08012KT 10SM FEW100 FEW120 12/08 A2978 RMK AO2 WSHFT 0124 RAE0057 TSE0055 SLP068 TS NE-SW MOV NE P0000 T01220083

More Conditions Fewer Conditions

Pressure 29.73 in
Visibility 10.0 miles
Clouds Few 10000 ft
Few 12000 ft
Dew Point 47 °F
Humidity 77%
Rainfall 0.10 in
Snow Depth Not available.
UV 0 out of 12
Pollen 9.60 out of 12
Air Quality Not available.
Flu Activity Sporadic
METAR KIDA 060153Z AUTO 08012KT 10SM FEW100 FEW120 12/08 A2978 RMK AO2 WSHFT 0124 RAE0057 TSE0055 SLP068 TS NE-SW MOV NE P0000 T01220083

More Conditions Fewer Conditions

10-Day Weather Forecast

Almanac

Astronomy

May. 05, 2015 Rise Set
Actual Time
Civil Twilight
Nautical Twilight
Astronomical Twilight
Moon
Length of Visible Light
Length of Day
Tomorrow will be .
, % of the Moon is Illuminated

Today's Extremes

State Highs State Lows

Community

WunderPhotos

Upload Photos

1,819,041 photos uploaded!

WunderBlogs® & News

Nearby

Air Quality

  Air Quality AQ Index Pollutant
Not available.

Snow Depth

Station Depth Elevation

Earthquake Activity

City Distance Mag. Time & Date
Minimum magnitude displayed is 2.5.

Coastal Water Temperatures

Place Temperature

Stations

Nearby Weather Stations

Station Location Temp. Windchill Dew Point Humidity Wind Precip. Elev Updated Type